Time;durP1;ratioP1;P1;durP2;ratioP2;P2;SDS_P1;SDS_P2;PMS_P1;PMS_P2;Temp;Humidity;BMP_temperature;BMP_pressure;BME280_temperature;BME280_humidity;BME280_pressure;Samples;Min_cycle;Max_cycle;Signal;HPM_P1;HPM_P2
2021/12/20 00:00:26;;;;;;;10.03;6.63;;;-0.20;99.90;-0.80;96671.00;;;;5064879;28;20482;-88
2021/12/20 00:03:15;;;;;;;13.30;7.73;;;-0.20;99.90;-0.90;96665.00;;;;5087728;28;20436;-87
2021/12/20 00:06:04;;;;;;;11.60;7.87;;;-0.50;99.90;-0.90;96677.00;;;;5074052;28;20683;-86
2021/12/20 00:08:53;;;;;;;10.13;6.83;;;-0.60;99.90;-0.70;96657.00;;;;5056968;28;20441;-87
2021/12/20 00:11:43;;;;;;;7.67;6.03;;;0.20;99.90;-0.20;96671.00;;;;5053815;28;20459;-87
2021/12/20 00:14:32;;;;;;;8.60;6.73;;;-0.30;99.90;-0.10;96668.00;;;;5063793;28;20767;-87
2021/12/20 00:17:21;;;;;;;8.03;7.00;;;0.40;99.90;-0.20;96667.00;;;;5074494;28;20950;-88
2021/12/20 00:20:11;;;;;;;5.13;4.00;;;0.40;99.90;0.40;96666.00;;;;5081447;28;20490;-86
2021/12/20 00:23:00;;;;;;;2.43;1.83;;;0.10;99.90;1.90;96690.00;;;;5083891;28;20437;-86
2021/12/20 00:25:50;;;;;;;2.07;1.37;;;0.80;99.90;1.70;96664.00;;;;5069141;28;20966;-86
2021/12/20 00:28:40;;;;;;;1.90;1.53;;;1.20;99.90;2.00;96680.00;;;;5069737;28;20959;-87
2021/12/20 00:31:29;;;;;;;1.27;1.20;;;1.50;99.90;2.10;96676.00;;;;5068278;28;20983;-86
2021/12/20 00:34:18;;;;;;;5.70;4.60;;;1.80;99.90;1.70;96679.00;;;;5071872;28;20432;-86
2021/12/20 00:40:19;;;;;;;11.37;8.73;;;1.90;99.90;1.00;96669.00;;;;5071275;28;20775;-86
2021/12/20 00:40:21;;;;;;;15.27;9.47;;;1.80;99.90;0.60;96662.00;;;;5060612;28;20837;-87
2021/12/20 00:43:10;;;;;;;12.23;7.50;;;1.60;99.90;0.60;96657.00;;;;5060846;28;20434;-87
2021/12/20 00:46:00;;;;;;;12.20;7.63;;;1.30;99.90;0.50;96667.00;;;;5073537;28;20461;-87
2021/12/20 00:48:49;;;;;;;10.23;7.80;;;1.10;99.90;0.20;96661.00;;;;5052602;28;20960;-87
2021/12/20 00:51:38;;;;;;;15.23;9.77;;;1.00;99.90;0.10;96666.00;;;;5063802;28;20516;-86
2021/12/20 00:54:27;;;;;;;18.60;10.80;;;0.70;99.90;0.10;96664.00;;;;5074760;28;20452;-88
2021/12/20 00:57:16;;;;;;;17.27;10.90;;;1.00;99.90;0.00;96669.00;;;;5067087;28;20438;-88
2021/12/20 01:00:08;;;;;;;15.17;11.57;;;0.50;99.90;-0.10;96684.00;;;;5070695;28;20474;-87
2021/12/20 01:02:59;;;;;;;16.73;10.30;;;0.40;99.90;-0.10;96686.00;;;;5063172;28;20418;-86
2021/12/20 01:05:49;;;;;;;15.43;10.53;;;0.40;99.90;0.00;96691.00;;;;5077419;28;20431;-88
2021/12/20 01:08:41;;;;;;;15.37;10.47;;;0.30;99.90;-0.10;96670.00;;;;5072222;28;20426;-86
2021/12/20 01:11:30;;;;;;;15.00;10.70;;;0.50;99.90;-0.20;96670.00;;;;5080260;28;20450;-86
2021/12/20 01:14:23;;;;;;;16.80;9.73;;;0.30;99.90;-0.30;96675.00;;;;5071761;28;20426;-88
2021/12/20 01:17:12;;;;;;;14.30;11.17;;;0.20;99.90;-0.60;96663.00;;;;5072857;28;20438;-88
2021/12/20 01:20:02;;;;;;;17.93;10.93;;;0.10;99.90;-0.50;96661.00;;;;5074123;28;20462;-86
2021/12/20 01:22:52;;;;;;;18.27;10.77;;;0.10;99.90;-0.50;96668.00;;;;5078347;28;20430;-87
2021/12/20 01:25:42;;;;;;;14.97;11.03;;;0.00;99.90;-0.50;96667.00;;;;5075486;28;20422;-87
2021/12/20 01:28:31;;;;;;;15.83;10.43;;;0.00;99.90;-0.50;96683.00;;;;5072079;28;20434;-86
2021/12/20 01:31:20;;;;;;;12.20;9.80;;;0.70;99.90;-0.60;96674.00;;;;5074493;28;20486;-87
2021/12/20 01:34:09;;;;;;;13.60;10.27;;;0.30;99.90;-0.60;96676.00;;;;5078901;28;20426;-88
2021/12/20 01:36:59;;;;;;;18.57;10.27;;;-0.20;99.90;-0.60;96669.00;;;;5081537;28;20433;-88
2021/12/20 01:39:48;;;;;;;20.63;10.17;;;-0.20;99.90;-0.60;96665.00;;;;5074707;28;20477;-87
2021/12/20 01:42:37;;;;;;;13.60;9.10;;;-0.20;99.90;-0.50;96673.00;;;;5079009;28;20831;-88
2021/12/20 01:45:28;;;;;;;15.17;11.00;;;-0.20;99.90;-0.60;96673.00;;;;5077923;28;20951;-88
2021/12/20 01:48:20;;;;;;;13.87;9.57;;;0.20;99.90;-0.60;96656.00;;;;5078906;28;20940;-88
2021/12/20 01:51:32;;;;;;;13.90;10.17;;;-0.20;99.90;-0.50;96657.00;;;;5078393;28;20458;-88
2021/12/20 01:54:22;;;;;;;14.60;10.90;;;0.10;99.90;-0.90;96648.00;;;;5062226;28;20433;-88
2021/12/20 01:57:11;;;;;;;15.17;9.77;;;0.10;99.90;-0.70;96655.00;;;;5078058;28;20445;-87
2021/12/20 02:00:00;;;;;;;12.30;8.67;;;-0.30;99.90;-0.70;96647.00;;;;5066603;28;20499;-86
2021/12/20 02:02:53;;;;;;;13.87;9.57;;;0.20;99.90;-0.70;96654.00;;;;5076018;28;20440;-88
2021/12/20 02:05:50;;;;;;;17.20;10.00;;;-0.20;99.90;-0.70;96669.00;;;;5071128;28;20420;-87
2021/12/20 02:08:39;;;;;;;13.77;10.17;;;-0.20;99.90;-0.80;96671.00;;;;5057578;28;20428;-88
2021/12/20 02:11:30;;;;;;;14.87;9.50;;;1.00;99.90;-0.80;96657.00;;;;5057582;28;20448;-86
2021/12/20 02:14:20;;;;;;;13.07;9.60;;;-0.20;99.90;-0.60;96656.00;;;;5065487;28;20422;-87
2021/12/20 02:17:09;;;;;;;12.50;8.80;;;-0.30;99.90;-0.70;96647.00;;;;5075684;28;20783;-88
2021/12/20 02:20:01;;;;;;;15.80;11.43;;;-0.30;99.90;-0.60;96655.00;;;;5075030;28;20792;-88
2021/12/20 02:22:50;;;;;;;14.20;9.10;;;0.30;99.90;-0.70;96646.00;;;;5074902;28;20430;-88
2021/12/20 02:25:39;;;;;;;13.17;10.20;;;-0.30;99.90;-0.70;96663.00;;;;5074940;28;20433;-87
2021/12/20 02:28:35;;;;;;;12.70;9.57;;;-0.30;99.90;-0.70;96653.00;;;;5079441;28;20428;-88
2021/12/20 02:37:42;;;;;;;2.37;1.33;;;0.00;99.90;1.50;96663.00;;;;5059004;28;20439;-88
2021/12/20 02:40:31;;;;;;;1.93;1.47;;;0.60;99.90;1.20;96660.00;;;;5055469;28;20839;-88
2021/12/20 02:43:20;;;;;;;1.40;1.00;;;1.00;99.90;1.70;96673.00;;;;5063869;28;20453;-86
2021/12/20 02:46:27;;;;;;;1.00;0.90;;;1.30;99.90;1.80;96685.00;;;;5071778;28;20686;-87
2021/12/20 02:49:18;;;;;;;1.53;1.20;;;1.60;99.90;1.80;96689.00;;;;5056800;28;20438;-88
2021/12/20 02:52:09;;;;;;;2.43;1.67;;;1.80;99.90;1.60;96680.00;;;;5058353;28;20415;-87
2021/12/20 02:55:00;;;;;;;1.37;1.27;;;1.90;99.90;1.50;96688.00;;;;5065973;28;20435;-88
2021/12/20 02:57:49;;;;;;;0.63;0.60;;;1.90;99.90;2.20;96675.00;;;;5077089;28;20777;-87
2021/12/20 03:00:38;;;;;;;10.63;8.23;;;1.90;99.90;1.60;96691.00;;;;5073940;28;20470;-87
2021/12/20 03:03:27;;;;;;;8.73;7.83;;;1.90;99.90;1.20;96677.00;;;;5069078;28;20525;-87
2021/12/20 03:06:19;;;;;;;5.47;4.93;;;1.90;99.90;1.00;96680.00;;;;5071811;28;20490;-86
2021/12/20 03:09:13;;;;;;;1.20;1.00;;;1.70;99.90;2.40;96670.00;;;;5087685;28;20426;-85
2021/12/20 03:12:06;;;;;;;0.40;0.40;;;1.90;99.90;3.10;96691.00;;;;5079220;28;20939;-85
2021/12/20 03:15:02;;;;;;;0.80;0.60;;;2.50;99.90;3.00;96695.00;;;;5067931;28;20438;-87
2021/12/20 03:17:52;;;;;;;2.20;0.60;;;2.70;99.90;3.30;96694.00;;;;5071687;28;20492;-86
2021/12/20 03:20:42;;;;;;;0.47;0.47;;;3.00;99.90;3.20;96691.00;;;;5071432;28;20470;-86
2021/12/20 03:23:31;;;;;;;0.50;0.50;;;3.10;99.90;3.70;96713.00;;;;5071833;28;20431;-85
2021/12/20 03:26:20;;;;;;;0.47;0.47;;;3.40;99.90;4.40;96695.00;;;;5073905;28;20743;-87
2021/12/20 03:29:10;;;;;;;0.40;0.40;;;4.40;99.90;4.30;96705.00;;;;5074045;28;20808;-88
2021/12/20 03:31:59;;;;;;;0.60;0.43;;;4.10;99.90;4.60;96689.00;;;;5073091;28;20842;-87
2021/12/20 03:34:48;;;;;;;0.50;0.50;;;4.40;99.90;4.60;96692.00;;;;5071187;28;20419;-86
2021/12/20 03:37:37;;;;;;;0.87;0.87;;;4.40;99.90;4.40;96680.00;;;;5068044;28;20505;-88
2021/12/20 03:40:26;;;;;;;0.40;0.40;;;4.50;99.90;4.30;96679.00;;;;5074769;28;20489;-86
2021/12/20 03:43:17;;;;;;;0.40;0.40;;;4.50;99.90;4.20;96689.00;;;;5071161;28;20457;-86
2021/12/20 03:46:08;;;;;;;0.80;0.60;;;4.40;99.30;4.10;96685.00;;;;5071148;28;20468;-87
2021/12/20 03:48:59;;;;;;;0.30;0.30;;;4.40;99.30;4.10;96689.00;;;;5052226;28;20439;-87
2021/12/20 03:51:48;;;;;;;0.40;0.33;;;4.30;98.40;3.80;96685.00;;;;5064632;28;20442;-87
2021/12/20 03:54:38;;;;;;;0.40;0.40;;;4.20;98.80;3.70;96679.00;;;;5071085;28;20434;-87
2021/12/20 03:57:27;;;;;;;1.50;0.30;;;4.10;99.30;3.50;96675.00;;;;5074848;28;20464;-87
2021/12/20 04:00:17;;;;;;;0.33;0.30;;;3.90;99.50;3.40;96678.00;;;;5067305;28;20473;-85
2021/12/20 04:03:12;;;;;;;0.37;0.37;;;3.80;99.90;3.30;96687.00;;;;5077595;28;20434;-87
2021/12/20 04:06:02;;;;;;;0.60;0.60;;;3.70;99.90;3.10;96695.00;;;;5069798;28;20432;-86
2021/12/20 04:08:51;;;;;;;0.60;0.60;;;3.50;99.90;3.20;96683.00;;;;5055982;28;20449;-86
2021/12/20 04:11:40;;;;;;;0.70;0.70;;;3.40;99.90;3.20;96687.00;;;;5070738;28;20513;-86
2021/12/20 04:14:29;;;;;;;0.70;0.50;;;3.40;99.90;3.30;96685.00;;;;5070588;28;20432;-87
2021/12/20 04:17:18;;;;;;;0.50;0.50;;;3.40;99.90;3.30;96682.00;;;;5073861;28;20431;-87
2021/12/20 04:20:10;;;;;;;0.40;0.40;;;3.40;99.90;3.20;96684.00;;;;5072696;28;20446;-87
2021/12/20 04:22:59;;;;;;;0.30;0.30;;;3.30;99.90;4.20;96699.00;;;;5068221;28;20426;-85
2021/12/20 04:25:48;;;;;;;0.40;0.40;;;3.50;97.50;3.80;96686.00;;;;5067042;28;20460;-87
2021/12/20 04:28:37;;;;;;;0.40;0.40;;;3.60;97.80;4.10;96705.00;;;;5056122;28;20422;-86
2021/12/20 04:31:28;;;;;;;0.43;0.30;;;3.70;96.40;3.80;96714.00;;;;5066352;28;20461;-86
2021/12/20 04:34:17;;;;;;;0.30;0.30;;;3.80;97.00;3.80;96721.00;;;;5047662;28;20423;-85
2021/12/20 04:37:08;;;;;;;0.70;0.57;;;3.90;96.80;3.90;96723.00;;;;5047588;28;20438;-85
2021/12/20 04:39:58;;;;;;;0.30;0.30;;;3.90;96.10;3.80;96712.00;;;;5052209;28;20447;-87
2021/12/20 04:42:47;;;;;;;1.00;0.43;;;4.00;96.10;4.00;96729.00;;;;5067352;28;20470;-86
2021/12/20 04:45:37;;;;;;;0.30;0.30;;;4.00;95.50;4.10;96735.00;;;;5070348;28;20438;-86
2021/12/20 04:48:26;;;;;;;0.40;0.40;;;4.00;94.80;4.30;96739.00;;;;5042226;28;20440;-87
2021/12/20 04:51:14;;;;;;;0.30;0.30;;;4.10;93.90;4.20;96727.00;;;;5070960;28;20451;-85
2021/12/20 04:54:05;;;;;;;0.40;0.40;;;4.20;94.40;4.10;96736.00;;;;5074092;28;20430;-87
2021/12/20 04:56:54;;;;;;;0.40;0.40;;;4.20;93.80;4.50;96731.00;;;;5072903;28;20434;-86
2021/12/20 04:59:43;;;;;;;0.23;0.23;;;4.30;92.20;4.30;96746.00;;;;5073873;28;20440;-88
2021/12/20 05:02:32;;;;;;;0.40;0.40;;;4.40;93.10;4.00;96733.00;;;;5066044;28;20602;-88
2021/12/20 05:05:22;;;;;;;0.40;0.40;;;4.30;93.90;4.10;96746.00;;;;5074280;28;20959;-88
2021/12/20 05:08:12;;;;;;;0.30;0.30;;;4.30;92.60;4.10;96748.00;;;;5074107;28;20800;-85
2021/12/20 05:11:04;;;;;;;3.10;0.80;;;4.30;92.90;4.60;96753.00;;;;5051040;28;20454;-85
2021/12/20 05:13:53;;;;;;;0.30;0.30;;;4.30;91.60;4.40;96757.00;;;;5058244;28;20727;-81
2021/12/20 05:16:42;;;;;;;1.27;0.60;;;4.40;92.40;4.30;96766.00;;;;5080488;28;20440;-81
2021/12/20 05:19:31;;;;;;;2.10;0.47;;;4.40;92.20;4.10;96774.00;;;;5086109;28;20432;-82
2021/12/20 05:22:20;;;;;;;0.40;0.30;;;4.30;92.40;4.00;96768.00;;;;5079994;28;20228;-81
2021/12/20 05:25:10;;;;;;;0.60;0.50;;;4.30;92.50;4.10;96776.00;;;;5070789;28;20939;-82
2021/12/20 05:28:00;;;;;;;0.50;0.50;;;4.30;92.00;4.10;96775.00;;;;5074113;28;20449;-87
2021/12/20 05:30:52;;;;;;;1.53;0.50;;;4.20;92.20;4.20;96806.00;;;;5082413;28;20467;-88
2021/12/20 05:33:42;;;;;;;1.30;0.50;;;4.20;92.10;4.20;96801.00;;;;5063439;28;20604;-85
2021/12/20 05:36:30;;;;;;;0.30;0.30;;;4.20;92.00;4.00;96784.00;;;;5072464;28;20420;-87
2021/12/20 05:39:19;;;;;;;0.30;0.30;;;4.20;92.70;4.00;96782.00;;;;5054740;28;20420;-87
2021/12/20 05:42:09;;;;;;;0.43;0.43;;;4.20;93.00;4.00;96799.00;;;;5061865;28;20462;-86
2021/12/20 05:44:59;;;;;;;0.30;0.30;;;4.20;93.40;4.10;96790.00;;;;5077556;28;20208;-87
2021/12/20 05:47:48;;;;;;;1.17;1.07;;;4.20;92.30;3.70;96779.00;;;;5080558;28;20432;-86
2021/12/20 05:50:37;;;;;;;0.40;0.40;;;4.20;93.00;4.10;96795.00;;;;5057137;28;20451;-85
2021/12/20 05:53:26;;;;;;;0.57;0.53;;;4.20;92.00;4.20;96808.00;;;;5071934;28;20429;-85
2021/12/20 05:56:15;;;;;;;1.93;1.80;;;4.40;91.90;4.30;96823.00;;;;5089590;28;20434;-86
2021/12/20 05:59:04;;;;;;;0.20;0.20;;;4.50;91.60;4.20;96814.00;;;;5087956;28;20446;-85
2021/12/20 06:01:54;;;;;;;0.40;0.40;;;4.50;92.10;4.20;96808.00;;;;5068380;28;20481;-87
2021/12/20 06:04:43;;;;;;;0.33;0.33;;;4.40;91.90;4.20;96818.00;;;;5070309;28;20425;-87
2021/12/20 06:07:32;;;;;;;0.40;0.30;;;4.40;92.10;4.10;96807.00;;;;5060717;28;20431;-88
2021/12/20 06:10:21;;;;;;;0.50;0.50;;;4.30;92.10;3.90;96814.00;;;;5050965;28;20861;-88
2021/12/20 06:13:10;;;;;;;0.40;0.30;;;4.20;92.40;3.90;96826.00;;;;5055997;28;20800;-86
2021/12/20 06:15:59;;;;;;;0.20;0.20;;;4.20;92.30;3.80;96824.00;;;;5058300;28;20431;-88
2021/12/20 06:18:51;;;;;;;0.83;0.40;;;4.10;92.90;3.50;96828.00;;;;5074696;28;20953;-87
2021/12/20 06:21:40;;;;;;;0.67;0.40;;;4.00;93.50;3.50;96835.00;;;;5071743;28;20476;-87
2021/12/20 06:24:29;;;;;;;0.50;0.40;;;3.90;93.40;3.60;96828.00;;;;5074288;28;20213;-87
2021/12/20 06:27:18;;;;;;;0.80;0.50;;;3.80;93.60;3.80;96833.00;;;;5064145;28;20458;-86
2021/12/20 06:30:09;;;;;;;0.40;0.40;;;3.90;93.50;4.10;96839.00;;;;5073643;28;20454;-87
2021/12/20 06:32:58;;;;;;;0.60;0.60;;;4.10;93.30;4.20;96847.00;;;;5075017;28;20435;-86
2021/12/20 06:35:56;;;;;;;0.53;0.53;;;4.30;93.70;4.30;96857.00;;;;5080563;28;20438;-89
2021/12/20 06:38:47;;;;;;;0.53;0.53;;;4.40;93.80;4.30;96852.00;;;;5075878;28;20423;-88
2021/12/20 06:41:36;;;;;;;0.50;0.50;;;4.50;93.70;4.10;96855.00;;;;5077827;28;20451;-88
2021/12/20 06:44:26;;;;;;;0.50;0.50;;;4.50;93.80;4.00;96855.00;;;;5083574;28;20434;-89
2021/12/20 06:54:09;;;;;;;0.70;0.70;;;4.20;95.50;4.20;96886.00;;;;5066488;28;20423;-88
2021/12/20 06:57:16;;;;;;;0.80;0.47;;;4.30;95.10;4.30;96888.00;;;;5066641;28;20785;-88
2021/12/20 07:00:24;;;;;;;0.67;0.60;;;4.50;94.10;4.00;96886.00;;;;5077430;28;20861;-87
2021/12/20 07:03:19;;;;;;;0.47;0.40;;;2.40;94.20;3.90;96880.00;;;;5065275;28;20474;-88
2021/12/20 07:06:23;;;;;;;0.30;0.30;;;4.20;95.30;4.00;96889.00;;;;5076680;28;20473;-88
2021/12/20 07:09:32;;;;;;;0.60;0.60;;;4.30;95.70;3.90;96887.00;;;;5071622;28;20421;-87
2021/12/20 07:12:51;;;;;;;0.30;0.30;;;4.30;96.60;4.00;96886.00;;;;5062238;28;20231;-89
2021/12/20 07:15:55;;;;;;;2.73;0.60;;;4.10;96.20;3.90;96887.00;;;;5065549;28;20426;-88
2021/12/20 07:18:48;;;;;;;1.30;0.90;;;4.10;96.40;3.50;96883.00;;;;5067478;28;20429;-86
2021/12/20 07:21:39;;;;;;;2.27;1.00;;;3.90;95.90;3.70;96875.00;;;;5073956;28;20445;-86
2021/12/20 07:24:49;;;;;;;1.50;1.20;;;4.00;95.80;3.50;96889.00;;;;5063949;28;20515;-88
2021/12/20 07:30:58;;;;;;;2.03;1.17;;;4.00;96.50;3.40;96892.00;;;;5064807;28;20446;-88
2021/12/20 07:33:56;;;;;;;2.27;1.07;;;4.10;97.30;2.80;96885.00;;;;5068627;28;20440;-87
2021/12/20 07:36:50;;;;;;;6.40;1.23;;;3.80;97.20;3.30;96890.00;;;;5068251;28;20436;-87
2021/12/20 07:39:39;;;;;;;2.93;1.30;;;3.60;97.40;3.60;96885.00;;;;5067204;28;20431;-87
2021/12/20 07:42:30;;;;;;;0.73;0.73;;;3.60;97.30;3.70;96895.00;;;;5054880;28;20490;-88
2021/12/20 07:45:20;;;;;;;0.50;0.50;;;3.80;96.90;4.10;96901.00;;;;5061552;28;20516;-88
2021/12/20 07:48:09;;;;;;;1.30;0.50;;;3.90;96.60;4.40;96900.00;;;;5077980;28;20487;-87
2021/12/20 07:51:01;;;;;;;1.90;0.63;;;4.10;96.20;4.50;96897.00;;;;5084470;28;20867;-87
2021/12/20 07:53:51;;;;;;;0.60;0.50;;;4.40;95.60;4.70;96913.00;;;;5068200;28;20445;-88
2021/12/20 07:57:05;;;;;;;0.97;0.50;;;4.50;95.10;4.80;96907.00;;;;5070352;28;20414;-87
2021/12/20 08:00:20;;;;;;;1.37;0.57;;;4.40;95.10;5.00;96907.00;;;;5061622;28;20464;-88
2021/12/20 08:03:24;;;;;;;1.13;0.57;;;5.00;94.90;4.90;96915.00;;;;5065661;28;20536;-88
2021/12/20 08:06:36;;;;;;;0.33;0.33;;;4.90;93.50;5.10;96917.00;;;;5068621;28;20431;-87
2021/12/20 08:10:06;;;;;;;0.43;0.43;;;5.20;93.20;4.70;96912.00;;;;5069775;28;20980;-88
2021/12/20 08:13:20;;;;;;;0.77;0.57;;;6.00;93.60;5.10;96918.00;;;;5051718;28;20211;-87
2021/12/20 08:16:43;;;;;;;0.47;0.47;;;5.30;93.20;5.20;96919.00;;;;5058700;28;20223;-87
2021/12/20 08:19:49;;;;;;;1.83;1.33;;;5.20;93.20;5.10;96919.00;;;;5048380;28;20212;-88
2021/12/20 08:23:08;;;;;;;4.27;2.13;;;5.30;93.30;5.30;96925.00;;;;5051585;28;20615;-87
2021/12/20 08:26:05;;;;;;;1.13;0.50;;;4.80;93.30;5.40;96921.00;;;;5048938;28;20212;-88
2021/12/20 08:29:18;;;;;;;3.97;1.50;;;4.50;93.00;5.40;96916.00;;;;5069145;28;20824;-89
2021/12/20 08:32:37;;;;;;;2.33;1.17;;;5.50;92.90;5.30;96923.00;;;;5045416;28;20573;-89
2021/12/20 08:35:32;;;;;;;1.17;0.70;;;5.60;92.00;5.60;96916.00;;;;5065550;28;20684;-87
2021/12/20 08:38:23;;;;;;;0.53;0.50;;;5.50;91.80;5.80;96926.00;;;;5063375;28;20234;-89
2021/12/20 08:41:21;;;;;;;0.70;0.67;;;5.50;91.50;5.70;96928.00;;;;5079084;28;20242;-87
2021/12/20 08:44:15;;;;;;;1.23;1.10;;;5.60;91.00;5.80;96923.00;;;;5074484;28;20212;-88
2021/12/20 08:47:15;;;;;;;1.40;1.17;;;5.70;90.80;6.00;96928.00;;;;5073726;28;20200;-89
2021/12/20 08:50:11;;;;;;;1.17;0.70;;;6.10;91.10;5.90;96926.00;;;;5066818;28;20227;-88
2021/12/20 08:53:02;;;;;;;1.20;0.67;;;5.80;89.90;6.00;96924.00;;;;5070631;28;20208;-88
2021/12/20 08:55:52;;;;;;;1.20;0.80;;;5.90;88.80;6.20;96921.00;;;;5071621;28;20589;-89
2021/12/20 08:58:48;;;;;;;1.57;0.83;;;6.00;89.00;6.10;96928.00;;;;5067272;28;20257;-90
2021/12/20 09:01:38;;;;;;;1.03;0.80;;;6.10;87.50;6.50;96928.00;;;;5069771;28;20223;-90
2021/12/20 09:04:29;;;;;;;2.67;0.60;;;6.20;87.40;6.60;96948.00;;;;5068000;28;20228;-89
2021/12/20 09:07:19;;;;;;;1.17;0.57;;;6.30;85.70;6.80;96943.00;;;;5070129;28;20200;-88
2021/12/20 09:10:10;;;;;;;0.50;0.40;;;6.50;84.20;6.60;96923.00;;;;5070174;28;20235;-88
2021/12/20 09:13:00;;;;;;;1.17;1.00;;;6.60;83.20;6.90;96945.00;;;;5065793;28;20203;-88
2021/12/20 09:16:12;;;;;;;0.63;0.60;;;6.70;81.70;6.70;96941.00;;;;5076095;28;20504;-89
2021/12/20 09:19:22;;;;;;;3.33;0.93;;;6.70;79.70;6.80;96943.00;;;;5060696;28;20203;-87
2021/12/20 09:22:14;;;;;;;1.03;0.90;;;6.90;80.70;6.40;96942.00;;;;5067368;28;20621;-88
2021/12/20 09:25:06;;;;;;;1.63;0.40;;;6.70;78.90;6.50;96959.00;;;;5064518;28;20203;-87
2021/12/20 09:27:58;;;;;;;0.40;0.40;;;6.70;78.80;6.80;96961.00;;;;5074462;28;20221;-87
2021/12/20 09:30:48;;;;;;;0.40;0.40;;;6.80;78.50;7.30;96958.00;;;;5067972;28;20220;-88
2021/12/20 09:33:37;;;;;;;0.30;0.30;;;6.80;78.80;6.50;96956.00;;;;5066208;28;20207;-87
2021/12/20 09:36:30;;;;;;;0.70;0.40;;;6.80;80.80;6.80;96965.00;;;;5070734;28;20560;-87
2021/12/20 09:39:20;;;;;;;1.13;0.67;;;6.80;79.20;6.80;96985.00;;;;5060823;28;20311;-87
2021/12/20 09:42:15;;;;;;;0.87;0.63;;;6.80;80.10;6.90;96979.00;;;;5064179;28;20205;-88
2021/12/20 09:45:05;;;;;;;0.47;0.47;;;6.90;80.50;6.90;96961.00;;;;5065357;28;20226;-88
2021/12/20 09:47:55;;;;;;;0.30;0.30;;;6.90;80.50;6.10;96949.00;;;;5052748;28;20200;-85
2021/12/20 09:50:45;;;;;;;2.50;0.50;;;6.80;79.80;6.00;96958.00;;;;5067241;28;20685;-87
2021/12/20 09:53:34;;;;;;;3.20;1.07;;;6.60;80.30;6.40;96958.00;;;;5077863;28;20261;-87
2021/12/20 09:56:26;;;;;;;1.30;0.30;;;6.50;80.70;6.70;96962.00;;;;5059249;28;20577;-88
2021/12/20 09:59:20;;;;;;;0.70;0.40;;;6.60;80.70;6.40;96943.00;;;;5081113;28;20203;-88
2021/12/20 10:02:10;;;;;;;3.50;0.70;;;6.70;79.90;7.10;96948.00;;;;5069478;28;20209;-88
2021/12/20 10:08:14;;;;;;;1.60;0.87;;;7.10;79.50;7.70;96949.00;;;;5064580;28;20219;-85
2021/12/20 10:11:08;;;;;;;0.20;0.20;;;7.30;80.50;7.00;96956.00;;;;5056374;28;20223;-87
2021/12/20 10:14:07;;;;;;;2.50;0.73;;;7.30;76.60;7.30;96962.00;;;;5054109;28;20681;-87
2021/12/20 10:17:05;;;;;;;0.80;0.50;;;7.30;77.80;6.80;96938.00;;;;5059790;28;20253;-87
2021/12/20 10:19:54;;;;;;;0.60;0.50;;;7.20;76.70;7.90;96942.00;;;;5057614;28;20209;-89
2021/12/20 10:22:44;;;;;;;1.13;0.50;;;7.50;77.70;8.60;96967.00;;;;5068108;28;20210;-89
2021/12/20 10:25:33;;;;;;;0.57;0.57;;;8.40;75.30;8.50;96937.00;;;;5060379;28;20208;-87
2021/12/20 10:28:24;;;;;;;0.40;0.40;;;9.00;70.60;9.20;96945.00;;;;5056767;28;20216;-89
2021/12/20 10:31:16;;;;;;;0.63;0.47;;;9.80;68.10;8.50;96941.00;;;;5059224;28;20696;-87
2021/12/20 10:34:07;;;;;;;0.43;0.43;;;10.40;63.10;8.90;96940.00;;;;5065009;28;20209;-89
2021/12/20 10:36:59;;;;;;;1.17;0.60;;;10.40;62.60;8.70;96951.00;;;;5062681;28;20204;-88
2021/12/20 10:39:48;;;;;;;1.43;0.73;;;10.40;59.00;8.50;96946.00;;;;5062071;28;20742;-90
2021/12/20 10:42:42;;;;;;;3.10;0.80;;;10.30;59.00;8.80;96948.00;;;;5053916;28;20197;-87
2021/12/20 10:45:30;;;;;;;0.30;0.30;;;10.60;58.80;8.00;96942.00;;;;5068701;28;20231;-87
2021/12/20 10:48:23;;;;;;;0.53;0.40;;;10.40;58.30;8.40;96925.00;;;;5059698;28;20212;-88
2021/12/20 10:51:25;;;;;;;0.93;0.77;;;10.10;58.50;6.90;96941.00;;;;5065028;28;20599;-81
2021/12/20 10:54:18;;;;;;;1.20;0.80;;;9.40;57.60;8.10;96928.00;;;;5074927;28;20207;-87
2021/12/20 10:57:08;;;;;;;2.43;0.60;;;9.10;58.90;9.00;96930.00;;;;5068097;28;20192;-87
2021/12/20 11:00:16;;;;;;;3.90;0.70;;;9.50;57.90;8.20;96917.00;;;;5074548;28;20202;-87
2021/12/20 11:03:20;;;;;;;0.40;0.40;;;9.60;57.70;8.80;96936.00;;;;5059780;28;20205;-88
2021/12/20 11:06:24;;;;;;;2.13;0.50;;;9.70;57.40;9.50;96935.00;;;;5066798;28;20252;-87
2021/12/20 11:09:19;;;;;;;0.50;0.50;;;10.00;57.50;9.30;96929.00;;;;5059972;28;20207;-89
2021/12/20 11:12:11;;;;;;;1.23;0.60;;;10.20;56.50;8.60;96917.00;;;;5062604;28;20203;-87
2021/12/20 11:15:04;;;;;;;0.50;0.30;;;10.20;55.20;9.30;96921.00;;;;5066545;28;20207;-86
2021/12/20 11:17:53;;;;;;;0.40;0.30;;;10.10;55.70;8.60;96899.00;;;;5064843;28;20192;-84
2021/12/20 11:20:42;;;;;;;1.07;0.60;;;10.10;54.80;9.50;96920.00;;;;5069903;28;20616;-90
2021/12/20 11:23:30;;;;;;;0.60;0.40;;;9.80;55.40;10.50;96933.00;;;;5049839;28;20594;-89
2021/12/20 11:26:21;;;;;;;0.60;0.50;;;10.10;55.40;10.80;96933.00;;;;5063451;28;20224;-89
2021/12/20 11:29:10;;;;;;;4.70;0.87;;;10.80;54.80;11.20;96937.00;;;;5073612;28;20257;-87
2021/12/20 11:32:01;;;;;;;9.53;1.47;;;11.30;53.70;9.80;96928.00;;;;5082754;28;20216;-89
2021/12/20 11:34:50;;;;;;;1.57;0.67;;;11.40;51.20;10.20;96919.00;;;;5065786;28;20590;-89
2021/12/20 11:37:39;;;;;;;0.43;0.43;;;11.00;51.50;9.00;96926.00;;;;5050764;28;20213;-87
2021/12/20 11:40:29;;;;;;;0.40;0.40;;;10.80;50.90;10.20;96942.00;;;;5064911;28;20223;-88
2021/12/20 11:43:20;;;;;;;0.60;0.50;;;10.90;51.40;9.40;96915.00;;;;5062365;28;20597;-84
2021/12/20 11:46:15;;;;;;;2.43;0.97;;;10.90;51.00;9.60;96917.00;;;;5065459;28;20225;-87
2021/12/20 11:49:04;;;;;;;0.63;0.40;;;10.30;50.80;9.00;96931.00;;;;5062180;28;20338;-86
2021/12/20 11:52:07;;;;;;;0.77;0.63;;;10.20;50.30;8.80;96911.00;;;;5068031;28;20226;-88
2021/12/20 11:54:56;;;;;;;3.23;1.20;;;9.90;50.70;9.90;96929.00;;;;5061044;28;20200;-85
2021/12/20 11:57:47;;;;;;;0.70;0.70;;;10.20;51.90;9.80;96933.00;;;;5068056;28;20211;-85
2021/12/20 12:00:39;;;;;;;0.53;0.53;;;10.40;51.00;9.10;96923.00;;;;5064999;28;20254;-85
2021/12/20 12:03:33;;;;;;;0.70;0.60;;;10.30;50.10;8.90;96913.00;;;;5054391;28;20197;-87
2021/12/20 12:06:27;;;;;;;2.53;0.83;;;10.30;49.00;11.10;96948.00;;;;5079609;28;20219;-87
2021/12/20 12:09:17;;;;;;;0.97;0.70;;;10.70;51.10;9.60;96917.00;;;;5064355;28;20211;-88
2021/12/20 12:12:25;;;;;;;0.97;0.73;;;10.70;49.10;10.00;96918.00;;;;5074155;28;20230;-87
2021/12/20 12:15:39;;;;;;;1.33;0.60;;;10.40;49.10;10.20;96929.00;;;;5062936;28;20223;-87
2021/12/20 12:18:53;;;;;;;1.10;0.70;;;10.90;48.80;11.90;96935.00;;;;5065846;28;20199;-87
2021/12/20 12:21:43;;;;;;;1.00;0.90;;;11.70;48.20;11.00;96934.00;;;;5051325;28;20309;-87
2021/12/20 12:24:47;;;;;;;0.97;0.80;;;12.10;46.50;11.20;96924.00;;;;5066888;28;20224;-88
2021/12/20 12:27:40;;;;;;;1.43;0.97;;;12.10;47.00;11.90;96930.00;;;;5072134;28;20222;-87
2021/12/20 12:30:36;;;;;;;1.27;0.90;;;12.50;45.90;11.70;96931.00;;;;5072942;28;20224;-87
2021/12/20 12:33:35;;;;;;;0.83;0.70;;;12.70;45.50;12.80;96935.00;;;;5076973;28;20191;-86
2021/12/20 12:36:38;;;;;;;0.83;0.67;;;13.00;45.50;13.50;96935.00;;;;5067296;28;20234;-87
2021/12/20 12:39:31;;;;;;;2.57;0.87;;;13.50;45.00;12.90;96923.00;;;;5082140;28;20191;-87
2021/12/20 12:42:49;;;;;;;1.60;0.97;;;14.00;43.60;11.20;96916.00;;;;5066426;28;20219;-84
2021/12/20 12:45:53;;;;;;;1.00;0.67;;;13.50;43.40;12.80;96946.00;;;;5063381;28;20212;-87
2021/12/20 12:48:47;;;;;;;1.20;1.00;;;13.80;43.60;12.60;96940.00;;;;5065603;28;20224;-87
2021/12/20 12:51:48;;;;;;;1.47;0.83;;;13.70;43.20;11.40;96935.00;;;;5070757;28;20235;-87
2021/12/20 12:54:42;;;;;;;3.17;1.90;;;13.70;42.80;12.20;96928.00;;;;5074117;28;20231;-87
2021/12/20 12:57:38;;;;;;;0.70;0.57;;;13.80;42.50;13.40;96932.00;;;;5058782;28;20220;-88
2021/12/20 13:00:32;;;;;;;3.63;1.07;;;13.80;42.80;13.10;96925.00;;;;5060210;28;20411;-87
2021/12/20 13:03:22;;;;;;;3.03;0.70;;;14.00;42.40;14.00;96944.00;;;;5065910;28;20200;-88
2021/12/20 13:06:20;;;;;;;1.73;1.47;;;14.30;42.90;12.50;96914.00;;;;5066265;28;20230;-89
2021/12/20 13:09:12;;;;;;;1.00;0.70;;;14.20;41.20;12.60;96944.00;;;;5069322;28;20212;-88
2021/12/20 13:12:13;;;;;;;1.10;0.87;;;14.00;41.80;11.10;96988.00;;;;5062701;28;20709;-86
2021/12/20 13:15:09;;;;;;;1.23;0.80;;;14.20;41.00;12.00;96938.00;;;;5060037;28;20215;-88
2021/12/20 13:18:07;;;;;;;4.37;2.40;;;13.50;41.80;11.10;96982.00;;;;5068538;28;20620;-86
2021/12/20 13:21:02;;;;;;;3.93;1.00;;;13.10;41.80;12.00;96945.00;;;;5069349;28;20307;-87